Terminal Aerodrome Forecast
Issued by NWS

Home | Current Version | Previous Version | Text Only | Print | Product List | Glossary On
Versions: 1 2 3 4 5 6 7 8 9 10 11 12 13 14 15
000
FTUS41 KBTV 031126
TAFMPV
TAF
KMPV 031126Z 0312/0412 00000KT P6SM SKC
     FM031800 17006KT P6SM FEW120 SCT200
     FM032100 17009G18KT 3SM -SHSN BR SCT025 BKN040 OVC060
     FM040000 18008G18KT 2SM -SN BR SCT008 OVC020
     FM040800 23010G20KT 4SM -SHSN BR SCT015 OVC020
     FM041100 25009KT P6SM SCT015 OVC020=

USA.gov is the U.S. government's official web portal to all federal, state and local government web resources and services.